sensor_id;sensor_type;location;lat;lon;timestamp;P1;durP1;ratioP1;P2;durP2;ratioP2
60847;SDS011;46681;47.696;9.140;2022-12-28T00:00:25;4.03;;;2.47;;
60847;SDS011;46681;47.696;9.140;2022-12-28T00:02:56;3.50;;;2.30;;
60847;SDS011;46681;47.696;9.140;2022-12-28T00:08:38;3.83;;;2.43;;
60847;SDS011;46681;47.696;9.140;2022-12-28T00:14:09;2.73;;;2.53;;
60847;SDS011;46681;47.696;9.140;2022-12-28T00:16:46;2.63;;;2.50;;
60847;SDS011;46681;47.696;9.140;2022-12-28T00:19:26;2.90;;;2.70;;
60847;SDS011;46681;47.696;9.140;2022-12-28T00:22:13;3.77;;;3.10;;
60847;SDS011;46681;47.696;9.140;2022-12-28T00:24:41;3.20;;;2.57;;
60847;SDS011;46681;47.696;9.140;2022-12-28T00:27:24;2.60;;;2.40;;
60847;SDS011;46681;47.696;9.140;2022-12-28T00:30:11;2.50;;;2.37;;
60847;SDS011;46681;47.696;9.140;2022-12-28T00:32:39;2.60;;;2.47;;
60847;SDS011;46681;47.696;9.140;2022-12-28T00:35:25;2.70;;;2.50;;
60847;SDS011;46681;47.696;9.140;2022-12-28T00:37:51;2.97;;;2.77;;
60847;SDS011;46681;47.696;9.140;2022-12-28T00:43:35;3.00;;;2.80;;
60847;SDS011;46681;47.696;9.140;2022-12-28T00:46:06;2.97;;;2.77;;
60847;SDS011;46681;47.696;9.140;2022-12-28T00:48:37;3.27;;;2.97;;
60847;SDS011;46681;47.696;9.140;2022-12-28T00:51:11;4.00;;;3.47;;
60847;SDS011;46681;47.696;9.140;2022-12-28T00:53:38;3.53;;;3.23;;
60847;SDS011;46681;47.696;9.140;2022-12-28T00:56:17;3.60;;;3.30;;
60847;SDS011;46681;47.696;9.140;2022-12-28T01:01:59;3.50;;;3.20;;
60847;SDS011;46681;47.696;9.140;2022-12-28T01:04:45;3.80;;;3.50;;
60847;SDS011;46681;47.696;9.140;2022-12-28T01:07:54;3.50;;;3.20;;
60847;SDS011;46681;47.696;9.140;2022-12-28T01:10:40;3.20;;;2.90;;
60847;SDS011;46681;47.696;9.140;2022-12-28T01:13:14;3.50;;;3.20;;
60847;SDS011;46681;47.696;9.140;2022-12-28T01:15:54;3.97;;;3.10;;
60847;SDS011;46681;47.696;9.140;2022-12-28T01:18:25;3.77;;;3.47;;
60847;SDS011;46681;47.696;9.140;2022-12-28T01:20:57;3.50;;;3.20;;
60847;SDS011;46681;47.696;9.140;2022-12-28T01:23:53;4.17;;;3.30;;
60847;SDS011;46681;47.696;9.140;2022-12-28T01:26:23;3.63;;;3.37;;
60847;SDS011;46681;47.696;9.140;2022-12-28T01:28:53;3.37;;;3.13;;
60847;SDS011;46681;47.696;9.140;2022-12-28T01:31:19;3.70;;;2.90;;
60847;SDS011;46681;47.696;9.140;2022-12-28T01:33:53;3.73;;;2.90;;
60847;SDS011;46681;47.696;9.140;2022-12-28T01:36:31;3.27;;;3.07;;
60847;SDS011;46681;47.696;9.140;2022-12-28T01:39:17;3.97;;;3.67;;
60847;SDS011;46681;47.696;9.140;2022-12-28T01:42:04;3.63;;;3.33;;
60847;SDS011;46681;47.696;9.140;2022-12-28T01:44:40;3.57;;;3.27;;
60847;SDS011;46681;47.696;9.140;2022-12-28T01:50:13;3.53;;;3.33;;
60847;SDS011;46681;47.696;9.140;2022-12-28T01:52:51;3.97;;;3.67;;
60847;SDS011;46681;47.696;9.140;2022-12-28T02:01:19;3.57;;;3.37;;
60847;SDS011;46681;47.696;9.140;2022-12-28T02:03:50;3.70;;;3.50;;
60847;SDS011;46681;47.696;9.140;2022-12-28T02:06:32;3.53;;;3.33;;
60847;SDS011;46681;47.696;9.140;2022-12-28T02:09:25;3.47;;;3.17;;
60847;SDS011;46681;47.696;9.140;2022-12-28T02:12:07;3.70;;;3.40;;
60847;SDS011;46681;47.696;9.140;2022-12-28T02:14:54;3.73;;;3.43;;
60847;SDS011;46681;47.696;9.140;2022-12-28T02:17:19;4.17;;;3.77;;
60847;SDS011;46681;47.696;9.140;2022-12-28T02:19:53;4.70;;;4.03;;
60847;SDS011;46681;47.696;9.140;2022-12-28T02:31:26;3.43;;;3.23;;
60847;SDS011;46681;47.696;9.140;2022-12-28T02:34:32;3.80;;;3.50;;
60847;SDS011;46681;47.696;9.140;2022-12-28T02:37:02;3.53;;;3.33;;
60847;SDS011;46681;47.696;9.140;2022-12-28T02:39:40;3.40;;;3.20;;
60847;SDS011;46681;47.696;9.140;2022-12-28T02:42:14;3.97;;;3.20;;
60847;SDS011;46681;47.696;9.140;2022-12-28T02:48:24;3.73;;;3.53;;
60847;SDS011;46681;47.696;9.140;2022-12-28T02:54:36;3.63;;;3.40;;
60847;SDS011;46681;47.696;9.140;2022-12-28T03:09:18;3.63;;;3.33;;
60847;SDS011;46681;47.696;9.140;2022-12-28T03:15:11;6.93;;;3.60;;
60847;SDS011;46681;47.696;9.140;2022-12-28T03:18:03;3.37;;;3.17;;
60847;SDS011;46681;47.696;9.140;2022-12-28T03:20:51;3.50;;;3.30;;
60847;SDS011;46681;47.696;9.140;2022-12-28T03:26:50;3.60;;;3.30;;
60847;SDS011;46681;47.696;9.140;2022-12-28T03:29:44;3.47;;;3.27;;
60847;SDS011;46681;47.696;9.140;2022-12-28T03:32:31;3.03;;;2.93;;
60847;SDS011;46681;47.696;9.140;2022-12-28T03:34:59;3.40;;;3.20;;
60847;SDS011;46681;47.696;9.140;2022-12-28T03:37:33;3.37;;;3.17;;
60847;SDS011;46681;47.696;9.140;2022-12-28T03:42:50;3.40;;;3.20;;
60847;SDS011;46681;47.696;9.140;2022-12-28T03:48:49;3.43;;;3.23;;
60847;SDS011;46681;47.696;9.140;2022-12-28T03:51:56;3.57;;;3.37;;
60847;SDS011;46681;47.696;9.140;2022-12-28T03:57:34;3.80;;;3.47;;
60847;SDS011;46681;47.696;9.140;2022-12-28T04:00:14;3.27;;;3.07;;
60847;SDS011;46681;47.696;9.140;2022-12-28T04:02:46;3.40;;;3.20;;
60847;SDS011;46681;47.696;9.140;2022-12-28T04:05:38;3.50;;;3.30;;
60847;SDS011;46681;47.696;9.140;2022-12-28T04:08:06;3.30;;;3.10;;
60847;SDS011;46681;47.696;9.140;2022-12-28T04:10:52;3.43;;;3.23;;
60847;SDS011;46681;47.696;9.140;2022-12-28T04:16:19;3.27;;;3.07;;
60847;SDS011;46681;47.696;9.140;2022-12-28T04:19:25;2.97;;;2.87;;
60847;SDS011;46681;47.696;9.140;2022-12-28T04:21:53;3.60;;;3.40;;
60847;SDS011;46681;47.696;9.140;2022-12-28T04:24:19;3.60;;;3.40;;
60847;SDS011;46681;47.696;9.140;2022-12-28T04:32:47;3.43;;;3.23;;
60847;SDS011;46681;47.696;9.140;2022-12-28T04:35:16;3.87;;;3.67;;
60847;SDS011;46681;47.696;9.140;2022-12-28T04:40:39;3.60;;;3.40;;
60847;SDS011;46681;47.696;9.140;2022-12-28T04:43:34;3.73;;;3.43;;
60847;SDS011;46681;47.696;9.140;2022-12-28T04:46:14;3.60;;;3.40;;
60847;SDS011;46681;47.696;9.140;2022-12-28T04:48:57;3.23;;;3.03;;
60847;SDS011;46681;47.696;9.140;2022-12-28T04:51:30;3.53;;;3.33;;
60847;SDS011;46681;47.696;9.140;2022-12-28T04:54:13;3.30;;;3.10;;
60847;SDS011;46681;47.696;9.140;2022-12-28T04:56:44;4.00;;;3.70;;
60847;SDS011;46681;47.696;9.140;2022-12-28T04:59:42;3.23;;;3.00;;
60847;SDS011;46681;47.696;9.140;2022-12-28T05:02:08;3.80;;;3.57;;
60847;SDS011;46681;47.696;9.140;2022-12-28T05:04:54;3.57;;;3.37;;
60847;SDS011;46681;47.696;9.140;2022-12-28T05:10:36;3.50;;;3.30;;
60847;SDS011;46681;47.696;9.140;2022-12-28T05:13:10;3.57;;;3.37;;
60847;SDS011;46681;47.696;9.140;2022-12-28T05:19:08;3.73;;;3.53;;
60847;SDS011;46681;47.696;9.140;2022-12-28T05:22:04;3.50;;;3.30;;
60847;SDS011;46681;47.696;9.140;2022-12-28T05:24:49;3.73;;;3.50;;
60847;SDS011;46681;47.696;9.140;2022-12-28T05:27:20;3.33;;;3.13;;
60847;SDS011;46681;47.696;9.140;2022-12-28T05:29:50;3.40;;;3.20;;
60847;SDS011;46681;47.696;9.140;2022-12-28T05:32:18;3.20;;;3.00;;
60847;SDS011;46681;47.696;9.140;2022-12-28T05:34:58;3.40;;;3.20;;
60847;SDS011;46681;47.696;9.140;2022-12-28T05:37:59;3.53;;;3.33;;
60847;SDS011;46681;47.696;9.140;2022-12-28T05:40:22;3.47;;;3.27;;
60847;SDS011;46681;47.696;9.140;2022-12-28T05:43:08;3.23;;;3.10;;
60847;SDS011;46681;47.696;9.140;2022-12-28T05:45:43;3.73;;;3.53;;
60847;SDS011;46681;47.696;9.140;2022-12-28T05:48:31;3.47;;;3.27;;
60847;SDS011;46681;47.696;9.140;2022-12-28T05:51:15;3.37;;;3.20;;
60847;SDS011;46681;47.696;9.140;2022-12-28T05:54:08;2.77;;;2.63;;
60847;SDS011;46681;47.696;9.140;2022-12-28T05:57:00;3.20;;;3.00;;
60847;SDS011;46681;47.696;9.140;2022-12-28T05:59:26;3.70;;;3.50;;
60847;SDS011;46681;47.696;9.140;2022-12-28T06:05:21;3.60;;;3.40;;
60847;SDS011;46681;47.696;9.140;2022-12-28T06:08:05;3.80;;;3.60;;
60847;SDS011;46681;47.696;9.140;2022-12-28T06:10:35;3.57;;;3.37;;
60847;SDS011;46681;47.696;9.140;2022-12-28T06:13:10;3.43;;;3.23;;
60847;SDS011;46681;47.696;9.140;2022-12-28T06:15:48;3.40;;;3.20;;
60847;SDS011;46681;47.696;9.140;2022-12-28T06:29:53;3.47;;;3.27;;
60847;SDS011;46681;47.696;9.140;2022-12-28T06:32:27;3.37;;;3.17;;
60847;SDS011;46681;47.696;9.140;2022-12-28T06:34:59;3.97;;;3.57;;
60847;SDS011;46681;47.696;9.140;2022-12-28T06:37:45;3.70;;;3.50;;
60847;SDS011;46681;47.696;9.140;2022-12-28T06:40:49;3.40;;;3.10;;
60847;SDS011;46681;47.696;9.140;2022-12-28T06:46:21;3.83;;;3.63;;
60847;SDS011;46681;47.696;9.140;2022-12-28T06:49:11;3.80;;;3.60;;
60847;SDS011;46681;47.696;9.140;2022-12-28T06:51:42;3.57;;;3.37;;
60847;SDS011;46681;47.696;9.140;2022-12-28T06:54:10;3.80;;;3.60;;
60847;SDS011;46681;47.696;9.140;2022-12-28T06:56:36;3.70;;;3.50;;
60847;SDS011;46681;47.696;9.140;2022-12-28T06:59:19;3.70;;;3.50;;
60847;SDS011;46681;47.696;9.140;2022-12-28T07:01:55;3.60;;;3.30;;
60847;SDS011;46681;47.696;9.140;2022-12-28T07:04:43;3.73;;;3.53;;
60847;SDS011;46681;47.696;9.140;2022-12-28T07:07:11;3.87;;;3.53;;
60847;SDS011;46681;47.696;9.140;2022-12-28T07:12:50;3.50;;;3.30;;
60847;SDS011;46681;47.696;9.140;2022-12-28T07:15:22;3.33;;;3.13;;
60847;SDS011;46681;47.696;9.140;2022-12-28T07:17:59;3.30;;;3.10;;
60847;SDS011;46681;47.696;9.140;2022-12-28T07:20:33;3.13;;;2.97;;
60847;SDS011;46681;47.696;9.140;2022-12-28T07:23:11;3.53;;;3.33;;
60847;SDS011;46681;47.696;9.140;2022-12-28T07:25:39;3.40;;;3.20;;
60847;SDS011;46681;47.696;9.140;2022-12-28T07:28:32;3.83;;;3.63;;
60847;SDS011;46681;47.696;9.140;2022-12-28T07:31:10;3.50;;;3.30;;
60847;SDS011;46681;47.696;9.140;2022-12-28T07:36:42;3.70;;;3.50;;
60847;SDS011;46681;47.696;9.140;2022-12-28T07:39:20;3.70;;;3.50;;
60847;SDS011;46681;47.696;9.140;2022-12-28T07:41:51;3.70;;;3.50;;
60847;SDS011;46681;47.696;9.140;2022-12-28T07:47:49;3.43;;;3.23;;
60847;SDS011;46681;47.696;9.140;2022-12-28T07:50:18;3.10;;;3.00;;
60847;SDS011;46681;47.696;9.140;2022-12-28T07:52:50;2.77;;;2.67;;
60847;SDS011;46681;47.696;9.140;2022-12-28T07:58:58;3.00;;;2.80;;
60847;SDS011;46681;47.696;9.140;2022-12-28T08:01:34;3.40;;;3.20;;
60847;SDS011;46681;47.696;9.140;2022-12-28T08:04:08;2.90;;;2.80;;
60847;SDS011;46681;47.696;9.140;2022-12-28T08:06:38;3.70;;;2.80;;
60847;SDS011;46681;47.696;9.140;2022-12-28T08:09:11;3.93;;;3.03;;
60847;SDS011;46681;47.696;9.140;2022-12-28T08:12:13;2.63;;;2.53;;
60847;SDS011;46681;47.696;9.140;2022-12-28T08:14:49;3.00;;;2.83;;
60847;SDS011;46681;47.696;9.140;2022-12-28T08:17:43;2.80;;;2.70;;
60847;SDS011;46681;47.696;9.140;2022-12-28T08:20:32;2.87;;;2.77;;
60847;SDS011;46681;47.696;9.140;2022-12-28T08:40:57;2.93;;;2.73;;
60847;SDS011;46681;47.696;9.140;2022-12-28T08:43:36;2.97;;;2.80;;
60847;SDS011;46681;47.696;9.140;2022-12-28T08:46:21;3.57;;;3.07;;
60847;SDS011;46681;47.696;9.140;2022-12-28T08:48:53;3.33;;;3.13;;
60847;SDS011;46681;47.696;9.140;2022-12-28T08:51:21;3.27;;;3.07;;
60847;SDS011;46681;47.696;9.140;2022-12-28T08:54:05;3.13;;;2.80;;
60847;SDS011;46681;47.696;9.140;2022-12-28T08:56:37;2.90;;;2.70;;
60847;SDS011;46681;47.696;9.140;2022-12-28T08:59:04;2.90;;;2.80;;
60847;SDS011;46681;47.696;9.140;2022-12-28T09:01:34;2.83;;;2.63;;
60847;SDS011;46681;47.696;9.140;2022-12-28T09:04:10;3.10;;;2.90;;
60847;SDS011;46681;47.696;9.140;2022-12-28T09:06:46;3.00;;;2.80;;
60847;SDS011;46681;47.696;9.140;2022-12-28T09:09:23;2.70;;;2.60;;
60847;SDS011;46681;47.696;9.140;2022-12-28T09:11:49;2.90;;;2.80;;
60847;SDS011;46681;47.696;9.140;2022-12-28T09:14:31;3.03;;;2.90;;
60847;SDS011;46681;47.696;9.140;2022-12-28T09:17:17;3.33;;;3.13;;
60847;SDS011;46681;47.696;9.140;2022-12-28T09:19:51;2.90;;;2.70;;
60847;SDS011;46681;47.696;9.140;2022-12-28T09:22:17;3.00;;;2.90;;
60847;SDS011;46681;47.696;9.140;2022-12-28T09:30:54;3.97;;;3.53;;
60847;SDS011;46681;47.696;9.140;2022-12-28T09:36:11;3.87;;;3.67;;
60847;SDS011;46681;47.696;9.140;2022-12-28T09:39:00;3.90;;;3.60;;
60847;SDS011;46681;47.696;9.140;2022-12-28T09:44:53;3.23;;;3.03;;
60847;SDS011;46681;47.696;9.140;2022-12-28T09:47:37;3.90;;;3.70;;
60847;SDS011;46681;47.696;9.140;2022-12-28T10:02:13;4.30;;;4.00;;
60847;SDS011;46681;47.696;9.140;2022-12-28T10:04:48;4.13;;;3.83;;
60847;SDS011;46681;47.696;9.140;2022-12-28T10:07:20;3.43;;;3.23;;
60847;SDS011;46681;47.696;9.140;2022-12-28T10:10:03;3.67;;;3.40;;
60847;SDS011;46681;47.696;9.140;2022-12-28T10:12:31;3.77;;;3.57;;
60847;SDS011;46681;47.696;9.140;2022-12-28T10:14:57;4.27;;;3.97;;
60847;SDS011;46681;47.696;9.140;2022-12-28T10:17:27;3.87;;;3.57;;
60847;SDS011;46681;47.696;9.140;2022-12-28T10:19:55;4.50;;;3.83;;
60847;SDS011;46681;47.696;9.140;2022-12-28T10:22:25;3.73;;;3.53;;
60847;SDS011;46681;47.696;9.140;2022-12-28T10:25:01;3.90;;;3.60;;
60847;SDS011;46681;47.696;9.140;2022-12-28T10:27:30;3.73;;;3.47;;
60847;SDS011;46681;47.696;9.140;2022-12-28T10:30:00;3.80;;;3.50;;
60847;SDS011;46681;47.696;9.140;2022-12-28T10:32:54;4.20;;;3.90;;
60847;SDS011;46681;47.696;9.140;2022-12-28T10:35:27;3.50;;;3.30;;
60847;SDS011;46681;47.696;9.140;2022-12-28T10:38:00;3.87;;;3.37;;
60847;SDS011;46681;47.696;9.140;2022-12-28T10:40:33;5.63;;;3.70;;
60847;SDS011;46681;47.696;9.140;2022-12-28T10:43:01;3.93;;;3.23;;
60847;SDS011;46681;47.696;9.140;2022-12-28T10:45:39;3.57;;;3.07;;
60847;SDS011;46681;47.696;9.140;2022-12-28T10:48:24;3.73;;;3.53;;
60847;SDS011;46681;47.696;9.140;2022-12-28T10:58:38;3.47;;;3.27;;
60847;SDS011;46681;47.696;9.140;2022-12-28T11:03:37;3.33;;;3.13;;
60847;SDS011;46681;47.696;9.140;2022-12-28T11:06:26;4.07;;;3.77;;
60847;SDS011;46681;47.696;9.140;2022-12-28T11:11:46;4.07;;;3.77;;
60847;SDS011;46681;47.696;9.140;2022-12-28T11:14:24;4.07;;;3.77;;
60847;SDS011;46681;47.696;9.140;2022-12-28T11:19:48;4.50;;;4.10;;
60847;SDS011;46681;47.696;9.140;2022-12-28T11:22:27;3.87;;;3.67;;
60847;SDS011;46681;47.696;9.140;2022-12-28T11:24:57;4.13;;;3.83;;
60847;SDS011;46681;47.696;9.140;2022-12-28T11:27:32;3.70;;;3.50;;
60847;SDS011;46681;47.696;9.140;2022-12-28T11:30:05;3.73;;;3.47;;
60847;SDS011;46681;47.696;9.140;2022-12-28T11:32:37;3.70;;;3.40;;
60847;SDS011;46681;47.696;9.140;2022-12-28T11:35:21;3.90;;;3.60;;
60847;SDS011;46681;47.696;9.140;2022-12-28T11:37:53;3.83;;;3.63;;
60847;SDS011;46681;47.696;9.140;2022-12-28T11:40:44;3.07;;;2.90;;
60847;SDS011;46681;47.696;9.140;2022-12-28T11:43:34;3.50;;;3.30;;
60847;SDS011;46681;47.696;9.140;2022-12-28T11:46:02;3.90;;;3.70;;
60847;SDS011;46681;47.696;9.140;2022-12-28T11:51:17;3.23;;;3.03;;
60847;SDS011;46681;47.696;9.140;2022-12-28T11:56:19;3.83;;;3.53;;
60847;SDS011;46681;47.696;9.140;2022-12-28T12:11:58;3.20;;;3.00;;
60847;SDS011;46681;47.696;9.140;2022-12-28T12:14:42;3.20;;;3.00;;
60847;SDS011;46681;47.696;9.140;2022-12-28T12:25:50;3.23;;;3.03;;
60847;SDS011;46681;47.696;9.140;2022-12-28T12:28:34;3.57;;;3.30;;
60847;SDS011;46681;47.696;9.140;2022-12-28T12:31:07;3.90;;;3.60;;
60847;SDS011;46681;47.696;9.140;2022-12-28T12:33:41;3.70;;;3.50;;
60847;SDS011;46681;47.696;9.140;2022-12-28T12:41:44;4.53;;;4.20;;
60847;SDS011;46681;47.696;9.140;2022-12-28T13:03:38;4.37;;;3.60;;
60847;SDS011;46681;47.696;9.140;2022-12-28T13:06:10;3.63;;;3.33;;
60847;SDS011;46681;47.696;9.140;2022-12-28T13:08:50;4.30;;;3.90;;
60847;SDS011;46681;47.696;9.140;2022-12-28T13:11:24;3.30;;;3.00;;
60847;SDS011;46681;47.696;9.140;2022-12-28T13:13:55;3.10;;;2.90;;
60847;SDS011;46681;47.696;9.140;2022-12-28T13:16:25;2.80;;;2.60;;
60847;SDS011;46681;47.696;9.140;2022-12-28T13:19:01;3.87;;;3.00;;
60847;SDS011;46681;47.696;9.140;2022-12-28T13:21:37;2.70;;;2.50;;
60847;SDS011;46681;47.696;9.140;2022-12-28T13:24:18;2.73;;;2.60;;
60847;SDS011;46681;47.696;9.140;2022-12-28T13:26:46;3.23;;;2.40;;
60847;SDS011;46681;47.696;9.140;2022-12-28T13:29:19;2.73;;;2.53;;
60847;SDS011;46681;47.696;9.140;2022-12-28T13:31:52;2.37;;;2.27;;
60847;SDS011;46681;47.696;9.140;2022-12-28T13:34:21;2.73;;;2.53;;
60847;SDS011;46681;47.696;9.140;2022-12-28T13:36:59;2.73;;;2.53;;
60847;SDS011;46681;47.696;9.140;2022-12-28T13:39:27;2.30;;;2.20;;
60847;SDS011;46681;47.696;9.140;2022-12-28T13:41:58;2.57;;;2.13;;
60847;SDS011;46681;47.696;9.140;2022-12-28T13:44:39;2.90;;;2.30;;
60847;SDS011;46681;47.696;9.140;2022-12-28T13:47:11;2.17;;;1.97;;
60847;SDS011;46681;47.696;9.140;2022-12-28T13:52:45;2.00;;;1.90;;
60847;SDS011;46681;47.696;9.140;2022-12-28T13:55:20;1.90;;;1.80;;
60847;SDS011;46681;47.696;9.140;2022-12-28T13:58:02;2.13;;;2.03;;
60847;SDS011;46681;47.696;9.140;2022-12-28T14:00:45;2.00;;;1.90;;
60847;SDS011;46681;47.696;9.140;2022-12-28T14:03:15;2.00;;;1.90;;
60847;SDS011;46681;47.696;9.140;2022-12-28T14:05:50;1.87;;;1.77;;
60847;SDS011;46681;47.696;9.140;2022-12-28T14:08:18;1.70;;;1.60;;
60847;SDS011;46681;47.696;9.140;2022-12-28T14:10:47;1.80;;;1.70;;
60847;SDS011;46681;47.696;9.140;2022-12-28T14:13:17;1.80;;;1.70;;
60847;SDS011;46681;47.696;9.140;2022-12-28T14:15:47;1.80;;;1.70;;
60847;SDS011;46681;47.696;9.140;2022-12-28T14:18:15;2.10;;;2.00;;
60847;SDS011;46681;47.696;9.140;2022-12-28T14:20:52;1.97;;;1.87;;
60847;SDS011;46681;47.696;9.140;2022-12-28T14:25:59;1.60;;;1.50;;
60847;SDS011;46681;47.696;9.140;2022-12-28T14:31:12;1.83;;;1.73;;
60847;SDS011;46681;47.696;9.140;2022-12-28T14:36:23;1.60;;;1.50;;
60847;SDS011;46681;47.696;9.140;2022-12-28T14:39:04;1.80;;;1.60;;
60847;SDS011;46681;47.696;9.140;2022-12-28T14:41:52;1.67;;;1.60;;
60847;SDS011;46681;47.696;9.140;2022-12-28T14:44:29;1.60;;;1.50;;
60847;SDS011;46681;47.696;9.140;2022-12-28T14:49:59;1.60;;;1.50;;
60847;SDS011;46681;47.696;9.140;2022-12-28T14:52:41;1.47;;;1.37;;
60847;SDS011;46681;47.696;9.140;2022-12-28T14:55:26;1.53;;;1.30;;
60847;SDS011;46681;47.696;9.140;2022-12-28T14:58:11;1.47;;;1.37;;
60847;SDS011;46681;47.696;9.140;2022-12-28T15:00:57;1.50;;;1.40;;
60847;SDS011;46681;47.696;9.140;2022-12-28T15:03:24;1.80;;;1.70;;
60847;SDS011;46681;47.696;9.140;2022-12-28T15:05:54;1.30;;;1.20;;
60847;SDS011;46681;47.696;9.140;2022-12-28T15:08:23;1.50;;;1.40;;
60847;SDS011;46681;47.696;9.140;2022-12-28T15:10:51;1.67;;;1.57;;
60847;SDS011;46681;47.696;9.140;2022-12-28T15:13:19;1.53;;;1.43;;
60847;SDS011;46681;47.696;9.140;2022-12-28T15:15:57;1.13;;;1.13;;
60847;SDS011;46681;47.696;9.140;2022-12-28T15:18:27;1.40;;;1.30;;
60847;SDS011;46681;47.696;9.140;2022-12-28T15:20:56;1.30;;;1.30;;
60847;SDS011;46681;47.696;9.140;2022-12-28T15:23:23;1.67;;;1.20;;
60847;SDS011;46681;47.696;9.140;2022-12-28T15:25:51;1.50;;;1.40;;
60847;SDS011;46681;47.696;9.140;2022-12-28T15:28:16;1.07;;;1.07;;
60847;SDS011;46681;47.696;9.140;2022-12-28T15:30:45;1.20;;;1.20;;
60847;SDS011;46681;47.696;9.140;2022-12-28T15:33:13;1.20;;;1.20;;
60847;SDS011;46681;47.696;9.140;2022-12-28T15:35:38;1.40;;;1.30;;
60847;SDS011;46681;47.696;9.140;2022-12-28T15:38:06;1.17;;;1.17;;
60847;SDS011;46681;47.696;9.140;2022-12-28T15:40:37;2.30;;;1.33;;
60847;SDS011;46681;47.696;9.140;2022-12-28T15:43:03;1.17;;;1.17;;
60847;SDS011;46681;47.696;9.140;2022-12-28T15:45:30;1.23;;;1.23;;
60847;SDS011;46681;47.696;9.140;2022-12-28T15:47:58;1.60;;;1.50;;
60847;SDS011;46681;47.696;9.140;2022-12-28T15:50:23;1.23;;;1.23;;
60847;SDS011;46681;47.696;9.140;2022-12-28T15:52:51;2.90;;;1.30;;
60847;SDS011;46681;47.696;9.140;2022-12-28T15:55:19;1.30;;;1.20;;
60847;SDS011;46681;47.696;9.140;2022-12-28T15:57:51;1.90;;;1.33;;
60847;SDS011;46681;47.696;9.140;2022-12-28T16:00:16;1.30;;;1.30;;
60847;SDS011;46681;47.696;9.140;2022-12-28T16:02:44;1.50;;;1.40;;
60847;SDS011;46681;47.696;9.140;2022-12-28T16:05:09;1.20;;;1.20;;
60847;SDS011;46681;47.696;9.140;2022-12-28T16:07:35;1.47;;;1.40;;
60847;SDS011;46681;47.696;9.140;2022-12-28T16:10:02;2.20;;;1.70;;
60847;SDS011;46681;47.696;9.140;2022-12-28T16:12:32;1.20;;;1.20;;
60847;SDS011;46681;47.696;9.140;2022-12-28T16:15:02;1.50;;;1.40;;
60847;SDS011;46681;47.696;9.140;2022-12-28T16:17:33;1.50;;;1.40;;
60847;SDS011;46681;47.696;9.140;2022-12-28T16:20:13;3.10;;;2.10;;
60847;SDS011;46681;47.696;9.140;2022-12-28T16:22:40;7.40;;;5.27;;
60847;SDS011;46681;47.696;9.140;2022-12-28T16:25:06;9.53;;;5.80;;
60847;SDS011;46681;47.696;9.140;2022-12-28T16:27:32;12.10;;;6.23;;
60847;SDS011;46681;47.696;9.140;2022-12-28T16:29:58;12.13;;;6.57;;
60847;SDS011;46681;47.696;9.140;2022-12-28T16:32:23;9.63;;;6.13;;
60847;SDS011;46681;47.696;9.140;2022-12-28T16:34:52;10.77;;;6.57;;
60847;SDS011;46681;47.696;9.140;2022-12-28T16:37:18;8.67;;;6.27;;
60847;SDS011;46681;47.696;9.140;2022-12-28T16:39:44;7.70;;;5.63;;
60847;SDS011;46681;47.696;9.140;2022-12-28T16:42:09;7.67;;;4.83;;
60847;SDS011;46681;47.696;9.140;2022-12-28T16:44:35;8.20;;;5.60;;
60847;SDS011;46681;47.696;9.140;2022-12-28T16:47:00;6.73;;;4.87;;
60847;SDS011;46681;47.696;9.140;2022-12-28T16:49:29;6.17;;;4.80;;
60847;SDS011;46681;47.696;9.140;2022-12-28T16:51:55;6.63;;;4.73;;
60847;SDS011;46681;47.696;9.140;2022-12-28T16:54:21;5.63;;;4.40;;
60847;SDS011;46681;47.696;9.140;2022-12-28T16:56:53;7.20;;;4.70;;
60847;SDS011;46681;47.696;9.140;2022-12-28T16:59:21;5.93;;;4.43;;
60847;SDS011;46681;47.696;9.140;2022-12-28T17:01:50;6.50;;;4.43;;
60847;SDS011;46681;47.696;9.140;2022-12-28T17:04:19;4.37;;;3.87;;
60847;SDS011;46681;47.696;9.140;2022-12-28T17:06:48;4.57;;;3.67;;
60847;SDS011;46681;47.696;9.140;2022-12-28T17:09:14;4.87;;;3.73;;
60847;SDS011;46681;47.696;9.140;2022-12-28T17:11:41;5.73;;;3.80;;
60847;SDS011;46681;47.696;9.140;2022-12-28T17:14:11;3.93;;;3.37;;
60847;SDS011;46681;47.696;9.140;2022-12-28T17:16:37;5.10;;;4.07;;
60847;SDS011;46681;47.696;9.140;2022-12-28T17:19:03;7.27;;;3.60;;
60847;SDS011;46681;47.696;9.140;2022-12-28T17:21:31;4.57;;;3.23;;
60847;SDS011;46681;47.696;9.140;2022-12-28T17:23:59;9.30;;;4.93;;
60847;SDS011;46681;47.696;9.140;2022-12-28T17:26:24;10.53;;;4.73;;
60847;SDS011;46681;47.696;9.140;2022-12-28T17:28:50;6.13;;;3.90;;
60847;SDS011;46681;47.696;9.140;2022-12-28T17:31:19;9.47;;;4.17;;
60847;SDS011;46681;47.696;9.140;2022-12-28T17:33:52;6.70;;;4.60;;
60847;SDS011;46681;47.696;9.140;2022-12-28T17:36:22;8.70;;;4.20;;
60847;SDS011;46681;47.696;9.140;2022-12-28T17:38:48;7.27;;;3.60;;
60847;SDS011;46681;47.696;9.140;2022-12-28T17:41:15;6.33;;;3.70;;
60847;SDS011;46681;47.696;9.140;2022-12-28T17:43:51;4.97;;;3.70;;
60847;SDS011;46681;47.696;9.140;2022-12-28T17:46:24;6.03;;;4.23;;
60847;SDS011;46681;47.696;9.140;2022-12-28T17:48:58;6.13;;;3.57;;
60847;SDS011;46681;47.696;9.140;2022-12-28T17:51:26;6.00;;;4.17;;
60847;SDS011;46681;47.696;9.140;2022-12-28T17:53:54;4.57;;;3.97;;
60847;SDS011;46681;47.696;9.140;2022-12-28T17:56:21;7.63;;;5.03;;
60847;SDS011;46681;47.696;9.140;2022-12-28T17:58:56;5.07;;;4.10;;
60847;SDS011;46681;47.696;9.140;2022-12-28T18:01:23;6.70;;;4.90;;
60847;SDS011;46681;47.696;9.140;2022-12-28T18:03:50;5.67;;;3.43;;
60847;SDS011;46681;47.696;9.140;2022-12-28T18:06:16;6.80;;;4.20;;
60847;SDS011;46681;47.696;9.140;2022-12-28T18:08:42;4.83;;;3.67;;
60847;SDS011;46681;47.696;9.140;2022-12-28T18:11:08;5.97;;;3.97;;
60847;SDS011;46681;47.696;9.140;2022-12-28T18:13:36;4.17;;;3.37;;
60847;SDS011;46681;47.696;9.140;2022-12-28T18:16:03;4.93;;;3.47;;
60847;SDS011;46681;47.696;9.140;2022-12-28T18:18:30;4.10;;;3.27;;
60847;SDS011;46681;47.696;9.140;2022-12-28T18:21:03;4.60;;;3.80;;
60847;SDS011;46681;47.696;9.140;2022-12-28T18:23:43;3.63;;;3.33;;
60847;SDS011;46681;47.696;9.140;2022-12-28T18:26:19;4.37;;;3.23;;
60847;SDS011;46681;47.696;9.140;2022-12-28T18:28:49;5.60;;;3.60;;
60847;SDS011;46681;47.696;9.140;2022-12-28T18:31:16;4.73;;;3.60;;
60847;SDS011;46681;47.696;9.140;2022-12-28T18:33:43;4.00;;;3.63;;
60847;SDS011;46681;47.696;9.140;2022-12-28T18:36:09;3.90;;;3.50;;
60847;SDS011;46681;47.696;9.140;2022-12-28T18:38:37;4.67;;;3.97;;
60847;SDS011;46681;47.696;9.140;2022-12-28T18:41:05;3.77;;;3.47;;
60847;SDS011;46681;47.696;9.140;2022-12-28T18:43:31;4.00;;;3.37;;
60847;SDS011;46681;47.696;9.140;2022-12-28T18:45:59;5.40;;;3.40;;
60847;SDS011;46681;47.696;9.140;2022-12-28T18:48:26;4.20;;;3.80;;
60847;SDS011;46681;47.696;9.140;2022-12-28T18:53:26;5.07;;;3.70;;
60847;SDS011;46681;47.696;9.140;2022-12-28T18:58:22;4.27;;;3.77;;
60847;SDS011;46681;47.696;9.140;2022-12-28T19:00:50;5.43;;;3.43;;
60847;SDS011;46681;47.696;9.140;2022-12-28T19:03:18;5.23;;;3.47;;
60847;SDS011;46681;47.696;9.140;2022-12-28T19:05:45;4.00;;;3.40;;
60847;SDS011;46681;47.696;9.140;2022-12-28T19:08:11;3.53;;;3.23;;
60847;SDS011;46681;47.696;9.140;2022-12-28T19:10:36;3.50;;;3.30;;
60847;SDS011;46681;47.696;9.140;2022-12-28T19:13:03;3.50;;;3.20;;
60847;SDS011;46681;47.696;9.140;2022-12-28T19:15:29;3.30;;;3.00;;
60847;SDS011;46681;47.696;9.140;2022-12-28T19:17:54;3.83;;;3.30;;
60847;SDS011;46681;47.696;9.140;2022-12-28T19:20:20;3.63;;;2.83;;
60847;SDS011;46681;47.696;9.140;2022-12-28T19:22:45;5.17;;;3.27;;
60847;SDS011;46681;47.696;9.140;2022-12-28T19:25:11;3.50;;;3.10;;
60847;SDS011;46681;47.696;9.140;2022-12-28T19:27:41;4.50;;;3.17;;
60847;SDS011;46681;47.696;9.140;2022-12-28T19:30:07;3.77;;;3.47;;
60847;SDS011;46681;47.696;9.140;2022-12-28T19:32:33;3.73;;;3.43;;